Ana Sayfa
METAR-TAF:

METAR-TAF

Havaalanları :

Fairbanks, Alaska, Amerika Birleşik Devletleri

Enlem: 64-48-14N, Boylam: 147-52-34W, yükseklik: 132 m

Güncel hava durumu gözlemi

Rapor saat 04:53 UTC de 33 dakika önce yapıldı.
Rüzgar doğu/kuzeydoğudan 4 kt
Sıcaklık 28°C
Nem 37%
Basınç 1017 hPa
Görüş mesafesi: 16.1 km
6000 ft yükseklikte az bulutlu
9000 ft yükseklikte az bulutlu

METAR: PAFA 230453Z 06004KT 10SM FEW060 FEW090 28/12 A3003 RMK AO2 SLP172 T02830117

Saat: 21:26 (05:26 UTC)

Tahmin

Rapor saat 23:29 UTC de 5 saat ve 57 dakika önce yapıldı.
Ayın 23'si saat 00 UTC'den ayın 24'si saat 06 UTC'ye kadar geçerli Tahmin
Rüzgar değişken yönden 5 kt
Görüş mesafesi: 10 km
6000 ft yükseklikte az bulutlu
9000 ft yükseklikte az bulutlu

TAF: PAFA 222329Z 2300/2406 VRB05KT P6SM FEW060 FEW090

4.000'den fazla havaalanı için hava durumu gözlemleri ve tahminleri (METAR ve TAF raporları).

Kullanılabilir istasyonlar harita üzerinde sarı ve kırmızı noktalarla gösterilir.

İstasyonun adını görmek için fareyi noktanın üzerinde gezdirin.

Sonrasında hava gözlem ve tahminlerini görmek için tıklayın.

Haritayı değiştirmek için: yaklaştırmak için siyah artı işaretli yeşil düğmeye ve uzaklaştırmak için de eksi işaretli düğmeye hızla tıklayın; bitişik haritalar için yeşil okları kullanın.


METAR-TAF: